Tiempo atmosférico en la estación meteorológica de La Aldea de San Nicolás, Las Palmas (318 m.)



Fecha
DESCASC
Temp. máxima en grados centígrados (hora)
DESCASC
Temp. mínima en grados centígrados (hora)
DESCASC
Temp. media en grados centígrados
DESCASC
Racha de viento máxima en m/sg (hora)
DESCASC
Velocidad máxima media en intervalos de 10 minutos(hora)
DESCASC
Precipitaciones diarias en mm
DESCASC
Precipitaciones de 00:00 a 06:00 en mm
DESCASC
Precipitaciones de 06:00 a 12:00 en mm
DESCASC
Precipitaciones de 12:00 a 18:00 en mm
DESCASC
Precipitaciones de 18:00 a 24:00 en mm
DESCASC
25-01-2020 22.8 (15:10) 12.3 (00:00) 17.5 10.56 (13:20) 4.72 (14:00) 0 0 0 0 0
24-01-2020 20.9 (14:20) 8.8 (00:00) 14.8 6.11 (13:00) 3.89 (13:50) 0 0 0 0 0
23-01-2020 21.2 (14:10) 11 (00:00) 16.1 8.89 (13:10) 5 (13:10) 0 0 0 0 0
22-01-2020 20.1 (16:40) 9.3 (00:00) 14.7 6.67 (15:40) 4.17 (17:00) 0 0 0 0 0
21-01-2020 20.2 (15:20) 12.2 (00:00) 16.2 13.89 (04:00) 6.11 (04:50) 0 0 0 0 0
20-01-2020 21.9 (13:10) 15.7 (00:00) 18.8 18.33 (02:50) 10 (01:00) 0 0 0 0 0
19-01-2020 23.3 (15:10) 7.9 (00:00) 15.6 17.5 (23:30) 9.17 (21:50) 0 0 0 0 0
18-01-2020 23.4 (15:20) 8.3 (00:00) 15.8 6.11 (15:10) 4.17 (13:10) 0 0 0 0 0
17-01-2020 22.6 (16:20) 7.7 (00:00) 15.2 6.11 (17:40) 4.44 (17:40) 0 0 0 0 0
16-01-2020 22.1 (13:10) 9.1 (00:00) 15.6 6.39 (15:30) 4.17 (11:50) 0 0 0 0 0
15-01-2020 22.6 (16:10) 8.5 (00:00) 15.6 8.61 (17:00) 4.17 (12:40) 0 0 0 0 0
14-01-2020 25.7 (14:50) 9.3 (00:00) 17.5 9.44 (11:40) 5.56 (11:40) 0 0 0 0 0
13-01-2020 24.5 (14:00) 10.1 (00:00) 17.3 7.22 (15:50) 4.72 (15:50) 0 0 0 0 0
12-01-2020 22.3 (14:30) 12.6 (00:00) 17.4 12.78 (07:10) 7.22 (05:50) 0 0 0 0 0
11-01-2020 22.9 (13:10) 16.5 (00:00) 19.7 19.72 (15:40) 10.28 (01:30) 0 0 0 0 0
10-01-2020 24.3 (15:10) 17.9 (00:00) 21.1 17.22 (16:40) 12.78 (16:10) 0 0 0 0 0
09-01-2020 23 (14:40) 15.8 (00:00) 19.4 18.89 (12:50) 9.17 (18:10) 0 0 0 0 0
08-01-2020 22.8 (14:20) 11.6 (00:00) 17.2 13.89 (18:20) 7.5 (18:20) 0 0 0 0 0
07-01-2020 21.6 (13:20) 15.3 (00:00) 18.5 16.67 (01:50) 8.89 (13:40) 0 0 0 0 0
06-01-2020 23 (13:20) 15.5 (00:00) 19.3 16.94 (14:30) 8.33 (13:50) 0 0 0 0 0
05-01-2020 23.1 (12:20) 8.1 (00:00) 15.6 17.5 (16:10) 7.22 (17:00) 0 0 0 0 0
04-01-2020 21.8 (16:30) 9.3 (00:00) 15.5 5.83 (11:40) 3.61 (19:30) 0 0 0 0 0
03-01-2020 21.7 (15:20) 8.4 (00:00) 15.1 6.67 (15:30) 3.89 (15:30) 0 0 0 0 0
02-01-2020 22.1 (13:20) 10.4 (00:00) 16.3 8.06 (13:40) 4.17 (13:40) 0 0 0 0 0
01-01-2020 22.8 (12:40) 9.7 (00:00) 16.2 6.94 (14:50) 4.17 (12:10) 0 0 0 0 0
31-12-2019 22.8 (14:00) 7.6 (00:00) 15.2 8.06 (16:20) 4.72 (17:20) 0 0 0 0 0
30-12-2019 25.5 (16:00) 11.1 (00:00) 18.3 6.39 (12:30) 5 (12:30) 0 0 0 0 0
29-12-2019 26.9 (15:10) 9.6 (00:00) 18.3 6.67 (16:00) 4.44 (12:10) 0 0 0 0 0
28-12-2019 25.9 (16:20) 10.9 (00:00) 18.4 7.22 (15:30) 4.72 (13:10) 0 0 0 0 0
27-12-2019 25.3 (13:50) 10.8 (00:00) 18 6.11 (13:40) 4.72 (14:10) 0 0 0 0 0

Gráficas

Temp. máximas Temp. mínimas Temp. medias Precipitaciones Rachas de viento máximas Velocidades máximas media en intervalos de 10 minutos

Datos horarios

Fecha y hora oficial Temperatura (ºC) Velocidad del viento (km/h) Dirección del viento Racha (km/h) Dirección de racha Precipitación (mm) Presión (hPa) Tendencia (hPa) Humedad (%)
2020-01-25 23:00:00 15.6 13 Nordeste 28 Nordeste 0 -- -- 50
2020-01-25 22:00:00 14.5 8 Norte 18 Norte 0 -- -- 61
2020-01-25 21:00:00 14.5 7 Norte 17 Norte 0 -- -- 69
2020-01-25 20:00:00 15.4 14 Norte 22 Norte 0 -- -- 68
2020-01-25 19:00:00 15.8 10 Norte 18 Norte 0 -- -- 66
2020-01-25 18:00:00 16.6 8 Sur 26 Noroeste 0 -- -- 63
2020-01-25 17:00:00 17.5 10 Norte 23 Sur 0 -- -- 45
2020-01-25 16:00:00 18 12 Norte 37 Norte 0 -- -- 45
2020-01-25 15:00:00 17.3 21 Norte 34 Norte 0 -- -- 50
2020-01-25 14:00:00 18.3 9 Norte 28 Noroeste 0 -- -- 55
2020-01-25 13:00:00 17.9 14 Noroeste 32 Noroeste 0 -- -- 52
2020-01-25 12:00:00 16.9 21 Noroeste 31 Noroeste 0 -- -- 52
2020-01-25 11:00:00 16.9 16 Norte 29 Norte 0 -- -- 52
2020-01-25 10:00:00 16.2 21 Norte 30 Norte 0 -- -- 54
2020-01-25 09:00:00 14 5 Nordeste 14 Noroeste 0 -- -- 64
2020-01-25 08:00:00 13.6 2 Este 14 Norte 0 -- -- 67
2020-01-25 07:00:00 13.9 4 Noroeste 19 Nordeste 0 -- -- 65
2020-01-25 06:00:00 13.3 4 Sudeste 11 Noroeste 0 -- -- 64
2020-01-25 05:00:00 13.2 2 Sur 8 Sudoeste 0 -- -- 64
2020-01-25 04:00:00 13.7 5 Sur 12 Noroeste 0 -- -- 63
2020-01-25 03:00:00 14 7 Norte 15 Nordeste 0 -- -- 63
2020-01-25 02:00:00 13.7 5 Norte 10 Noroeste 0 -- -- 64
2020-01-25 01:00:00 14.5 5 Nordeste 12 Este 0 -- -- 60
2020-01-25 00:00:00 14.8 8 Nordeste 18 Norte 0 -- -- 58
2020-01-24 23:00:00 14.7 11 Norte 19 Norte 0 -- -- 59
2020-01-24 22:00:00 14.5 6 Norte 11 Norte 0 -- -- 61
2020-01-24 21:00:00 15 6 Norte 13 Norte 0 -- -- 56
2020-01-24 20:00:00 15 6 Norte 13 Nordeste 0 -- -- 59
2020-01-24 19:00:00 15.8 13 Norte 22 Norte 0 -- -- 61
2020-01-24 18:00:00 16.9 10 Nordeste 23 Sur 0 -- -- 53
2020-01-24 17:00:00 19.5 18 Sur 29 Sur 0 -- -- 58
2020-01-24 16:00:00 19.5 20 Sur 33 Sur 0 -- -- 58
2020-01-24 15:00:00 20.4 19 Sur 29 Sur 0 -- -- 56
2020-01-24 14:00:00 20.7 18 Sur 27 Sur 0 -- -- 55
2020-01-24 13:00:00 17.8 17 Sur 26 Sur 0 -- -- 63
2020-01-24 12:00:00 16.6 10 Sur 22 Sur 0 -- -- 65
2020-01-24 11:00:00 17.3 10 Sur 14 Sur 0 -- -- 57
2020-01-24 10:00:00 13.5 0 Calma 5 Nordeste 0 -- -- 61
2020-01-24 09:00:00 11.8 4 Norte 13 Nordeste 0 -- -- 66
2020-01-24 08:00:00 10.9 5 Norte 13 Nordeste 0 -- -- 69
2020-01-24 07:00:00 11.5 6 Norte 14 Nordeste 0 -- -- 70
2020-01-24 06:00:00 11.5 11 Norte 15 Norte 0 -- -- 75
2020-01-24 05:00:00 11.7 5 Norte 11 Norte 0 -- -- 78
2020-01-24 04:00:00 11.7 5 Norte 11 Norte 0 -- -- 80
2020-01-24 03:00:00 11.9 6 Norte 12 Norte 0 -- -- 77
2020-01-24 02:00:00 12.1 9 Norte 13 Norte 0 -- -- 78
2020-01-24 01:00:00 11.9 5 Nordeste 8 Nordeste 0 -- -- 77
2020-01-24 00:00:00 12.8 5 Nordeste 11 Nordeste 0 -- -- 77
2020-01-23 23:00:00 12.8 5 Norte 11 Norte 0 -- -- 76
2020-01-23 22:00:00 13.4 4 Nordeste 6 Norte 0 -- -- 74
2020-01-23 21:00:00 14 4 Norte 6 Norte 0 -- -- 73
2020-01-23 20:00:00 14.7 3 Norte 9 Sudoeste 0 -- -- 70
2020-01-23 19:00:00 15.6 8 Sudoeste 23 Sur 0 -- -- 68
2020-01-23 18:00:00 17.8 13 Sur 24 Sur 0 -- -- 60
2020-01-23 17:00:00 19 17 Sur 26 Sur 0 -- -- 57
2020-01-23 16:00:00 20.7 18 Sur 31 Sur 0 -- -- 52
2020-01-23 15:00:00 20.2 24 Sur 34 Sur 0 -- -- 54
2020-01-23 14:00:00 18.1 19 Sur 26 Sur 0 -- -- 61
2020-01-23 13:00:00 19.5 16 Sur 24 Sur 0 -- -- 56
2020-01-23 12:00:00 19.5 18 Sur 24 Sur 0 -- -- 58
2020-01-23 11:00:00 16.9 5 Sur 10 Sur 0 -- -- 66
2020-01-23 10:00:00 13.7 0 Calma 5 Norte 0 -- -- 79
2020-01-23 09:00:00 12.4 2 Este 13 Norte 0 -- -- 77
2020-01-23 08:00:00 12 7 Norte 12 Norte 0 -- -- 77
2020-01-23 07:00:00 12.5 6 Norte 14 Norte 0 -- -- 78
2020-01-23 06:00:00 12.6 6 Nordeste 9 Norte 0 -- -- 78
2020-01-23 05:00:00 12.2 8 Norte 12 Norte 0 -- -- 78
2020-01-23 04:00:00 12 4 Norte 8 Norte 0 -- -- 75
2020-01-23 03:00:00 11.9 0 Calma 11 Norte 0 -- -- 75
2020-01-23 02:00:00 11.8 8 Norte 12 Norte 0 -- -- 74
2020-01-23 01:00:00 11.9 6 Norte 11 Norte 0 -- -- 74
2020-01-23 00:00:00 12.1 8 Norte 12 Norte 0 -- -- 72
2020-01-22 23:00:00 12.5 6 Norte 13 Norte 0 -- -- 72
2020-01-22 22:00:00 13.2 4 Norte 8 Nordeste 0 -- -- 71
2020-01-22 21:00:00 14.1 5 Sur 13 Sur 0 -- -- 70
2020-01-22 20:00:00 14.4 10 Sur 19 Sur 0 -- -- 69
2020-01-22 19:00:00 15.5 12 Sur 27 Sur 0 -- -- 62
2020-01-22 18:00:00 17.4 14 Sur 31 Sur 0 -- -- 57
2020-01-22 17:00:00 19.2 20 Sur 32 Sur 0 -- -- 54
2020-01-22 16:00:00 19.8 21 Sur 30 Sur 0 -- -- 50
2020-01-22 15:00:00 19.5 19 Sur 27 Sur 0 -- -- 48
2020-01-22 14:00:00 19 18 Sur 27 Sur 0 -- -- 49
2020-01-22 13:00:00 18.3 19 Sur 26 Sur 0 -- -- 49
2020-01-22 12:00:00 18.6 14 Sur 22 Sur 0 -- -- 50
2020-01-22 11:00:00 16.9 8 Sur 12 Sur 0 -- -- 47
2020-01-22 10:00:00 14.5 0 Calma 8 Norte 0 -- -- 55
2020-01-22 09:00:00 12.4 8 Norte 12 Norte 0 -- -- 59
2020-01-22 08:00:00 11.5 7 Norte 13 Norte 0 -- -- 58
2020-01-22 07:00:00 11.5 10 Norte 13 Norte 0 -- -- 61
2020-01-22 06:00:00 11.8 6 Norte 14 Norte 0 -- -- 61
2020-01-22 05:00:00 11.3 8 Norte 15 Norte 0 -- -- 60
2020-01-22 04:00:00 11.4 4 Nordeste 13 Nordeste 0 -- -- 59
2020-01-22 03:00:00 12.6 10 Nordeste 18 Nordeste 0 -- -- 58
2020-01-22 02:00:00 12.7 9 Nordeste 17 Nordeste 0 -- -- 58
2020-01-22 01:00:00 12.2 10 Norte 17 Nordeste 0 -- -- 63
2020-01-22 00:00:00 12.5 10 Norte 12 Nordeste 0 -- -- 63
2020-01-21 23:00:00 13.4 6 Este 19 Noroeste 0 -- -- 61
2020-01-21 22:00:00 13.7 3 Nordeste 18 Norte 0 -- -- 59
2020-01-21 21:00:00 14.1 8 Norte 15 Norte 0 -- -- 60
2020-01-21 20:00:00 14.2 12 Norte 26 Norte 0 -- -- 65
2020-01-21 19:00:00 14.3 9 Norte 27 Norte 0 -- -- 60
2020-01-21 18:00:00 14.6 12 Norte 31 Norte 0 -- -- 62
2020-01-21 17:00:00 15 19 Norte 35 Noroeste 0 -- -- 58
2020-01-21 16:00:00 15.9 20 Norte 34 Noroeste 0 -- -- 53
2020-01-21 15:00:00 15.6 23 Norte 39 Norte 0 -- -- 50
2020-01-21 14:00:00 16.3 15 Norte 36 Norte 0 -- -- 46
2020-01-21 13:00:00 16 17 Norte 36 Nordeste 0 -- -- 49
2020-01-21 12:00:00 15.3 22 Nordeste 40 Noroeste 0 -- -- 57
2020-01-21 11:00:00 15 19 Noroeste 38 Noroeste 0 -- -- 58
2020-01-21 10:00:00 15.1 14 Norte 38 Norte 0 -- -- 52
2020-01-21 09:00:00 14.2 11 Norte 37 Nordeste 0 -- -- 54
2020-01-21 08:00:00 13.9 14 Norte 28 Norte 0 -- -- 55
2020-01-21 07:00:00 13.7 9 Noroeste 28 Noroeste 0 -- -- 59
2020-01-21 06:00:00 14.2 21 Nordeste 44 Nordeste 0 -- -- 52
2020-01-21 05:00:00 14.2 22 Nordeste 48 Nordeste 0 -- -- 53
2020-01-21 04:00:00 14.1 27 Nordeste 49 Nordeste 0 -- -- 56
2020-01-21 03:00:00 14.2 16 Norte 31 Nordeste 0 -- -- 62
2020-01-21 02:00:00 14.3 15 Norte 27 Norte 0 -- -- 62
2020-01-21 01:00:00 14.7 13 Norte 37 Norte 0 -- -- 63
2020-01-21 00:00:00 14.5 16 Norte 42 Norte 0 -- -- 64
2020-01-20 23:00:00 15.1 22 Norte 49 Norte 0 -- -- 57
2020-01-20 22:00:00 14.9 21 Norte 49 Norte 0 -- -- 57
2020-01-20 21:00:00 15 24 Norte 47 Norte 0 -- -- 57
2020-01-20 20:00:00 15.1 20 Norte 40 Norte 0 -- -- 58
2020-01-20 19:00:00 15.6 14 Norte 41 Nordeste 0 -- -- 59
2020-01-20 18:00:00 16.4 16 Norte 36 Norte 0 -- -- 58
2020-01-20 17:00:00 16.8 19 Norte 40 Noroeste 0 -- -- 59
2020-01-20 16:00:00 17.9 21 Noroeste 37 Noroeste 0 -- -- 54
2020-01-20 15:00:00 18.3 17 Noroeste 36 Norte 0 -- -- 54
2020-01-20 14:00:00 17.5 19 Norte 39 Norte 0 -- -- 55
2020-01-20 13:00:00 17.5 19 Norte 42 Norte 0 -- -- 54
2020-01-20 12:00:00 16.9 25 Norte 42 Norte 0 -- -- 59
2020-01-20 11:00:00 16.3 19 Norte 38 Norte 0 -- -- 59
2020-01-20 10:00:00 15.2 20 Norte 38 Norte 0 -- -- 63
2020-01-20 09:00:00 14.7 26 Norte 35 Norte 0 -- -- 63
2020-01-20 08:00:00 14.4 16 Norte 36 Norte 0 -- -- 64
2020-01-20 07:00:00 14.9 23 Norte 34 Norte 0 -- -- 61
2020-01-20 06:00:00 15.3 21 Norte 37 Norte 0 -- -- 61
2020-01-20 05:00:00 15.3 11 Norte 32 Norte 0 -- -- 63
2020-01-20 04:00:00 15.5 14 Norte 35 Norte 0 -- -- 66
2020-01-20 03:00:00 14.9 4 Sur 25 Norte 0 -- -- 73
2020-01-20 02:00:00 16.2 8 Oeste 31 Nordeste 0 -- -- 71
2020-01-20 01:00:00 14.5 0 Calma 6 Sudeste 0 -- -- 76
2020-01-20 00:00:00 14.5 2 Sur 10 Norte 0 -- -- 81
2020-01-19 23:00:00 14.5 4 Norte 10 Norte 0 -- -- 81
2020-01-19 22:00:00 14.8 4 Sur 8 Nordeste 0 -- -- 79
2020-01-19 21:00:00 15.3 8 Norte 11 Norte 0 -- -- 77
2020-01-19 20:00:00 16 0 Calma 13 Sur 0 -- -- 73
2020-01-19 19:00:00 17 8 Sur 15 Sur 0 -- -- 71
2020-01-19 18:00:00 18.6 7 Sur 22 Sur 0 -- -- 66
2020-01-19 17:00:00 21 17 Sur 25 Sur 0 -- -- 55
2020-01-19 16:00:00 22.6 16 Sur 27 Sur 0 -- -- 49
2020-01-19 15:00:00 23 19 Sur 28 Sur 0 -- -- 41
2020-01-19 14:00:00 23.5 21 Sur 27 Sur 0 -- -- 31
2020-01-19 13:00:00 23.2 19 Sur 24 Sur 0 -- -- 28
2020-01-19 12:00:00 22.1 14 Sur 19 Sur 0 -- -- 26
2020-01-19 11:00:00 20.4 8 Sur 13 Sur 0 -- -- 22
2020-01-19 10:00:00 16.4 0 Calma 6 Norte 0 -- -- 22
2020-01-19 09:00:00 14.6 5 Norte 16 Norte 0 -- -- 25
2020-01-19 08:00:00 15.1 9 Norte 14 Norte 0 -- -- 24
2020-01-19 07:00:00 14.4 6 Norte 17 Norte 0 -- -- 26
2020-01-19 06:00:00 14.4 4 Nordeste 15 Nordeste 0 -- -- 27
2020-01-19 05:00:00 14.5 6 Nordeste 12 Norte 0 -- -- 27
2020-01-19 04:00:00 14.9 6 Norte 10 Norte 0 -- -- 28
2020-01-19 03:00:00 15.5 3 Nordeste 14 Nordeste 0 -- -- 30
2020-01-19 02:00:00 16.1 8 Norte 15 Norte 0 -- -- 31
2020-01-19 01:00:00 15.5 8 Norte 16 Norte 0 -- -- 35
2020-01-19 00:00:00 14.7 5 Nordeste 11 Norte 0 -- -- 38
2020-01-18 23:00:00 15.1 5 Norte 10 Norte 0 -- -- 37
2020-01-18 22:00:00 16 3 Nordeste 10 Norte 0 -- -- 36
2020-01-18 21:00:00 15.9 5 Norte 8 Norte 0 -- -- 33
2020-01-18 20:00:00 16.4 6 Norte 9 Norte 0 -- -- 39
2020-01-18 19:00:00 17.5 0 Calma 12 Sur 0 -- -- 47
2020-01-18 18:00:00 19.9 9 Sur 19 Sur 0 -- -- 41
2020-01-18 17:00:00 22.4 15 Sur 23 Sur 0 -- -- 37
2020-01-18 16:00:00 23 18 Sur 27 Sur 0 -- -- 36
2020-01-18 15:00:00 23.1 21 Sur 32 Sur 0 -- -- 34
2020-01-18 14:00:00 23.3 16 Sur 25 Sur 0 -- -- 31
2020-01-18 13:00:00 22.8 17 Sur 23 Sur 0 -- -- 31
2020-01-18 12:00:00 21.4 17 Sur 22 Sur 0 -- -- 33
2020-01-18 11:00:00 19.7 6 Sur 9 Sur 0 -- -- 26
2020-01-18 10:00:00 15.3 0 Calma 8 Norte 0 -- -- 25
2020-01-18 09:00:00 13.4 3 Nordeste 14 Norte 0 -- -- 28
2020-01-18 08:00:00 13.3 6 Norte 11 Norte 0 -- -- 28
2020-01-18 07:00:00 13.5 7 Norte 13 Nordeste 0 -- -- 27
2020-01-18 06:00:00 13.8 0 Calma 15 Norte 0 -- -- 27
2020-01-18 05:00:00 14.1 8 Norte 15 Nordeste 0 -- -- 29
2020-01-18 04:00:00 14.3 4 Nordeste 11 Norte 0 -- -- 29
2020-01-18 03:00:00 15.7 4 Norte 11 Norte 0 -- -- 21
2020-01-18 02:00:00 15.8 5 Norte 16 Norte 0 -- -- 23
2020-01-18 01:00:00 15 6 Norte 14 Norte 0 -- -- 35
2020-01-18 00:00:00 14.4 6 Norte 13 Norte 0 -- -- 44
2020-01-17 23:00:00 14.5 6 Norte 10 Nordeste 0 -- -- 46
2020-01-17 22:00:00 14.8 3 Norte 12 Norte 0 -- -- 44
2020-01-17 21:00:00 15 0 Calma 10 Norte 0 -- -- 43
2020-01-17 20:00:00 15.8 9 Norte 12 Norte 0 -- -- 37
2020-01-17 19:00:00 16.5 0 Calma 12 Sur 0 -- -- 51
2020-01-17 18:00:00 18.8 12 Sur 20 Sur 0 -- -- 46
2020-01-17 17:00:00 21.1 15 Sur 28 Sur 0 -- -- 39
2020-01-17 16:00:00 21.8 19 Sur 24 Sur 0 -- -- 39
2020-01-17 15:00:00 21.6 18 Sur 30 Sur 0 -- -- 39
2020-01-17 14:00:00 22 21 Sur 29 Sur 0 -- -- 35
2020-01-17 13:00:00 22 21 Sur 26 Sur 0 -- -- 34
2020-01-17 12:00:00 20.6 15 Sur 19 Sur 0 -- -- 40
2020-01-17 11:00:00 17.9 6 Sur 9 Sur 0 -- -- 31
2020-01-17 10:00:00 13.4 0 Calma 8 Norte 0 -- -- 38
2020-01-17 09:00:00 11.9 4 Norte 14 Norte 0 -- -- 40
2020-01-17 08:00:00 12.1 7 Norte 13 Norte 0 -- -- 38
2020-01-17 07:00:00 11.9 7 Norte 13 Norte 0 -- -- 40
2020-01-17 06:00:00 11.8 6 Norte 15 Norte 0 -- -- 43
2020-01-17 05:00:00 12.5 6 Norte 13 Norte 0 -- -- 46
2020-01-17 04:00:00 12.5 5 Norte 13 Norte 0 -- -- 48
2020-01-17 03:00:00 13 7 Nordeste 13 Norte 0 -- -- 51
2020-01-17 02:00:00 12.6 5 Norte 13 Norte 0 -- -- 53
2020-01-17 01:00:00 13.9 7 Norte 13 Norte 0 -- -- 54
2020-01-17 00:00:00 14 9 Nordeste 13 Norte 0 -- -- 56
2020-01-16 23:00:00 13.4 5 Norte 10 Nordeste 0 -- -- 51
2020-01-16 22:00:00 14.1 3 Norte 11 Norte 0 -- -- 49
2020-01-16 21:00:00 14.5 2 Este 11 Norte 0 -- -- 55
2020-01-16 20:00:00 14.9 4 Norte 7 Sur 0 -- -- 58
2020-01-16 19:00:00 16 5 Sur 16 Sur 0 -- -- 57
2020-01-16 18:00:00 18.1 12 Sur 22 Sur 0 -- -- 50
2020-01-16 17:00:00 20.2 17 Sur 31 Sur 0 -- -- 46
2020-01-16 16:00:00 21.3 22 Sur 31 Sur 0 -- -- 39
2020-01-16 15:00:00 22.1 17 Sur 27 Sur 0 -- -- 41
2020-01-16 14:00:00 21.6 17 Sur 28 Sudoeste 0 -- -- 33
2020-01-16 13:00:00 21.4 19 Sur 29 Sur 0 -- -- 32
2020-01-16 12:00:00 20.1 15 Sur 20 Sur 0 -- -- 32
2020-01-16 11:00:00 18.8 7 Sur 15 Sur 0 -- -- 28
2020-01-16 10:00:00 15.3 3 Nordeste 13 Nordeste 0 -- -- 30
2020-01-16 09:00:00 14 10 Nordeste 17 Norte 0 -- -- 32
2020-01-16 08:00:00 12.8 3 Nordeste 13 Norte 0 -- -- 34
2020-01-16 07:00:00 13.5 10 Norte 17 Norte 0 -- -- 33
2020-01-16 06:00:00 13.7 6 Nordeste 14 Nordeste 0 -- -- 34
2020-01-16 05:00:00 13.7 6 Norte 13 Norte 0 -- -- 33
2020-01-16 04:00:00 15.2 0 Calma 9 Norte 0 -- -- 30
2020-01-16 03:00:00 14.9 4 Sur 9 Sudeste 0 -- -- 31
2020-01-16 02:00:00 15.5 5 Norte 14 Nordeste 0 -- -- 29
2020-01-16 01:00:00 15.5 2 Norte 15 Nordeste 0 -- -- 29
2020-01-16 00:00:00 16.1 8 Norte 14 Norte 0 -- -- 28
2020-01-15 23:00:00 15.3 8 Norte 14 Nordeste 0 -- -- 31
2020-01-15 22:00:00 15.8 7 Norte 13 Nordeste 0 -- -- 33
2020-01-15 21:00:00 14.6 7 Norte 10 Norte 0 -- -- 57
2020-01-15 20:00:00 15.1 6 Norte 10 Norte 0 -- -- 55
2020-01-15 19:00:00 16.6 6 Sur 9 Sur 0 -- -- 53
2020-01-15 18:00:00 18.1 8 Sudoeste 17 Sudoeste 0 -- -- 48
2020-01-15 17:00:00 18.6 12 Oeste 24 Oeste 0 -- -- 44
2020-01-15 16:00:00 19.2 17 Norte 34 Noroeste 0 -- -- 37
2020-01-15 15:00:00 21.3 10 Nordeste 30 Sur 0 -- -- 32
2020-01-15 14:00:00 22 10 Sur 31 Sur 0 -- -- 31
2020-01-15 13:00:00 21.4 12 Sudoeste 32 Sur 0 -- -- 29
2020-01-15 12:00:00 20.3 24 Sur 38 Sudoeste 0 -- -- 26
2020-01-15 11:00:00 18.9 9 Sur 15 Sur 0 -- -- 25
2020-01-15 10:00:00 15 0 Calma 10 Noroeste 0 -- -- 30
2020-01-15 09:00:00 14.3 5 Nordeste 12 Nordeste 0 -- -- 31
2020-01-15 08:00:00 13 3 Sudeste 9 Norte 0 -- -- 33
2020-01-15 07:00:00 13.1 7 Norte 10 Norte 0 -- -- 33
2020-01-15 06:00:00 14.2 3 Norte 10 Norte 0 -- -- 32
2020-01-15 05:00:00 15.2 5 Nordeste 14 Nordeste 0 -- -- 30
2020-01-15 04:00:00 14.3 3 Norte 12 Noroeste 0 -- -- 32
2020-01-15 03:00:00 14.1 4 Norte 9 Norte 0 -- -- 32
2020-01-15 02:00:00 15.6 6 Norte 13 Norte 0 -- -- 30
2020-01-15 01:00:00 14.7 4 Norte 10 Norte 0 -- -- 32
2020-01-15 00:00:00 14.2 6 Nordeste 12 Norte 0 -- -- 33
2020-01-14 23:00:00 14.5 4 Norte 10 Este 0 -- -- 32
2020-01-14 22:00:00 14.9 3 Nordeste 10 Nordeste 0 -- -- 33
2020-01-14 21:00:00 15.1 5 Norte 12 Nordeste 0 -- -- 36
2020-01-14 20:00:00 15.9 4 Nordeste 9 Nordeste 0 -- -- 37
2020-01-14 19:00:00 16.6 3 Noroeste 27 Sudoeste 0 -- -- 35
2020-01-14 18:00:00 18.1 16 Sur 30 Sudoeste 0 -- -- 32
2020-01-14 17:00:00 20.4 15 Sur 30 Sur 0 -- -- 29
2020-01-14 16:00:00 20.7 22 Sudoeste 45 Sur 0 -- -- 30
2020-01-14 15:00:00 21 19 Sudoeste 39 Sur 0 -- -- 33
2020-01-14 14:00:00 21.3 17 Sur 48 Sur 0 -- -- 29
2020-01-14 13:00:00 20.8 26 Sudoeste 50 Sur 0 -- -- 30
2020-01-14 12:00:00 19.9 26 Sur 47 Sur 0 -- -- 33
2020-01-14 11:00:00 18.7 14 Sudoeste 26 Sudoeste 0 -- -- 38
2020-01-14 10:00:00 16.5 5 Noroeste 18 Noroeste 0 -- -- 44
2020-01-14 09:00:00 16 8 Noroeste 23 Norte 0 -- -- 53
2020-01-14 08:00:00 15.9 8 Oeste 19 Oeste 0 -- -- 44
2020-01-14 07:00:00 15.2 5 Noroeste 10 Norte 0 -- -- 36
2020-01-14 06:00:00 16.3 4 Norte 17 Norte 0 -- -- 32
2020-01-14 05:00:00 15.8 5 Noroeste 14 Noroeste 0 -- -- 32
2020-01-14 04:00:00 15.8 6 Norte 10 Norte 0 -- -- 30
2020-01-14 03:00:00 16.3 4 Este 14 Oeste 0 -- -- 29
2020-01-14 02:00:00 16.7 4 Norte 14 Noroeste 0 -- -- 29
2020-01-14 01:00:00 16.5 5 Norte 10 Nordeste 0 -- -- 29
2020-01-14 00:00:00 16.3 6 Norte 12 Norte 0 -- -- 29
2020-01-13 23:00:00 16.8 4 Norte 23 Noroeste 0 -- -- 29
2020-01-13 22:00:00 17.1 5 Nordeste 14 Norte 0 -- -- 29
2020-01-13 21:00:00 17.8 9 Noroeste 32 Noroeste 0 -- -- 28
2020-01-13 20:00:00 17.3 8 Norte 15 Norte 0 -- -- 30
2020-01-13 19:00:00 17.4 5 Noroeste 37 Sur 0 -- -- 33
2020-01-13 18:00:00 18.7 17 Sur 45 Sur 0 -- -- 34
2020-01-13 17:00:00 21 16 Sudoeste 37 Sur 0 -- -- 37
2020-01-13 16:00:00 21.9 15 Sudoeste 48 Sur 0 -- -- 35
2020-01-13 15:00:00 22.6 24 Sur 44 Sur 0 -- -- 35
2020-01-13 14:00:00 21.7 22 Sudoeste 46 Sur 0 -- -- 38
2020-01-13 13:00:00 22.2 27 Sur 47 Sur 0 -- -- 37
2020-01-13 12:00:00 21.7 23 Sur 39 Sur 0 -- -- 35
2020-01-13 11:00:00 20.3 15 Sudoeste 29 Sudoeste 0 -- -- 38
2020-01-13 10:00:00 16.1 0 Calma 9 Nordeste 0 -- -- 44
2020-01-13 09:00:00 15 3 Sudoeste 17 Nordeste 0 -- -- 46
2020-01-13 08:00:00 14.1 4 Nordeste 11 Norte 0 -- -- 47
2020-01-13 07:00:00 13.8 6 Norte 13 Norte 0 -- -- 44
2020-01-13 06:00:00 14.4 5 Nordeste 9 Sur 0 -- -- 42
2020-01-13 05:00:00 15.4 6 Sur 11 Nordeste 0 -- -- 40
2020-01-13 04:00:00 13.9 5 Norte 9 Norte 0 -- -- 43
2020-01-13 03:00:00 13.7 5 Norte 11 Norte 0 -- -- 44
2020-01-13 02:00:00 13.8 6 Norte 10 Norte 0 -- -- 46
2020-01-13 01:00:00 13.8 3 Norte 13 Este 0 -- -- 47
2020-01-13 00:00:00 13.7 4 Noroeste 11 Norte 0 -- -- 55
2020-01-12 23:00:00 14.7 11 Norte 20 Norte 0 -- -- 54
2020-01-12 22:00:00 14.3 9 Norte 13 Norte 0 -- -- 64
2020-01-12 21:00:00 15.1 6 Norte 16 Nordeste 0 -- -- 59
2020-01-12 20:00:00 15.7 3 Oeste 14 Norte 0 -- -- 61
2020-01-12 19:00:00 16 6 Norte 19 Norte 0 -- -- 58
2020-01-12 18:00:00 16.7 15 Noroeste 30 Noroeste 0 -- -- 57
2020-01-12 17:00:00 17.7 15 Noroeste 24 Noroeste 0 -- -- 57
2020-01-12 16:00:00 20.6 12 Sur 30 Sur 0 -- -- 53
2020-01-12 15:00:00 20.8 22 Sur 30 Sur 0 -- -- 51
2020-01-12 14:00:00 21.1 21 Sur 27 Sur 0 -- -- 50
2020-01-12 13:00:00 20.2 18 Sur 26 Sur 0 -- -- 54
2020-01-12 12:00:00 19 13 Sur 28 Sur 0 -- -- 58
2020-01-12 11:00:00 17.1 8 Sur 17 Sur 0 -- -- 64
2020-01-12 10:00:00 15.4 12 Noroeste 19 Noroeste 0 -- -- 72
2020-01-12 09:00:00 13.1 6 Nordeste 12 Norte 0 -- -- 76
2020-01-12 08:00:00 12.7 6 Nordeste 10 Norte 0 -- -- 73
2020-01-12 07:00:00 13.7 6 Norte 10 Este 0 -- -- 70
2020-01-12 06:00:00 14.7 6 Este 17 Norte 0 -- -- 66
2020-01-12 05:00:00 14.6 6 Nordeste 19 Norte 0 -- -- 64
2020-01-12 04:00:00 14.7 6 Nordeste 18 Norte 0 -- -- 67
2020-01-12 03:00:00 15 9 Nordeste 26 Norte 0 -- -- 66
2020-01-12 02:00:00 15.1 6 Este 27 Norte 0 -- -- 66
2020-01-12 01:00:00 14.9 5 Norte 22 Norte 0 -- -- 65
2020-01-12 00:00:00 14.5 5 Nordeste 19 Nordeste 0 -- -- 73
2020-01-11 23:00:00 14.8 9 Nordeste 20 Norte 0 -- -- 72
2020-01-11 22:00:00 15 12 Norte 22 Norte 0 -- -- 67
2020-01-11 21:00:00 15.3 12 Norte 22 Norte 0 -- -- 61
2020-01-11 20:00:00 15.5 14 Norte 36 Norte 0 -- -- 62
2020-01-11 19:00:00 15.8 21 Norte 37 Norte 0 -- -- 65
2020-01-11 18:00:00 16.5 17 Norte 31 Norte 0 -- -- 67
2020-01-11 17:00:00 17.4 16 Norte 32 Norte 0 -- -- 62
2020-01-11 16:00:00 17.8 17 Norte 25 Norte 0 -- -- 63
2020-01-11 15:00:00 19.3 8 Sudoeste 21 Sur 0 -- -- 60
2020-01-11 14:00:00 19.2 15 Sur 25 Sur 0 -- -- 59
2020-01-11 13:00:00 19.4 15 Sur 23 Sur 0 -- -- 61
2020-01-11 12:00:00 17.8 12 Sur 19 Sur 0 -- -- 64
2020-01-11 11:00:00 15.9 4 Sudeste 8 Este 0 -- -- 69
2020-01-11 10:00:00 14.2 2 Sudeste 12 Norte 0 -- -- 71
2020-01-11 09:00:00 13.1 10 Norte 13 Norte 0 -- -- 73
2020-01-11 08:00:00 13.2 9 Norte 14 Nordeste 0 -- -- 73
2020-01-11 07:00:00 13.4 9 Norte 15 Nordeste 0 -- -- 74
2020-01-11 06:00:00 13.5 6 Norte 16 Nordeste 0 -- -- 73
2020-01-11 05:00:00 13.6 2 Norte 10 Norte 0 -- -- 75
2020-01-11 04:00:00 14.2 7 Norte 14 Nordeste 0 -- -- 73
2020-01-11 03:00:00 14.4 9 Norte 15 Nordeste 0 -- -- 75
2020-01-11 02:00:00 14.6 8 Norte 12 Nordeste 0 -- -- 74
2020-01-11 01:00:00 14.8 0 Calma 11 Norte 0 -- -- 68
2020-01-11 00:00:00 15.6 6 Nordeste 15 Norte 0 -- -- 65
2020-01-10 23:00:00 15.9 4 Este 19 Nordeste 0 -- -- 63
2020-01-10 22:00:00 16.1 6 Nordeste 14 Nordeste 0 -- -- 61
2020-01-10 21:00:00 16.5 9 Nordeste 23 Este 0 -- -- 58
2020-01-10 20:00:00 16.9 12 Norte 29 Norte 0 -- -- 57
2020-01-10 19:00:00 17.4 12 Norte 24 Norte 0 -- -- 60
2020-01-10 18:00:00 18.7 10 Sur 23 Sur 0 -- -- 67
2020-01-10 17:00:00 20.6 13 Sur 27 Sur 0 -- -- 61
2020-01-10 16:00:00 22.4 17 Sur 28 Sur 0 -- -- 58
2020-01-10 15:00:00 21.8 17 Sur 30 Sur 0 -- -- 60
2020-01-10 14:00:00 21.9 19 Sur 26 Sur 0 -- -- 58
2020-01-10 13:00:00 20.2 18 Sur 24 Sur 0 -- -- 64
2020-01-10 12:00:00 19.2 13 Sur 22 Sur 0 -- -- 65
2020-01-10 11:00:00 18.8 11 Sur 17 Sudoeste 0 -- -- 61
2020-01-10 10:00:00 15 0 Calma 11 Este 0 -- -- 72
2020-01-10 09:00:00 14.4 3 Noroeste 9 Noroeste 0 -- -- 73
2020-01-10 08:00:00 14.4 5 Sudoeste 17 Sur 0 -- -- 72
2020-01-10 07:00:00 14.3 4 Oeste 16 Sur 0 -- -- 67
2020-01-10 06:00:00 15.4 9 Norte 21 Norte 0 -- -- 62
2020-01-10 05:00:00 14.9 5 Sur 11 Sudeste 0 -- -- 62
2020-01-10 04:00:00 15.4 0 Calma 31 Norte 0 -- -- 62
2020-01-10 03:00:00 15.8 9 Norte 23 Norte 0 -- -- 63
2020-01-10 02:00:00 14.3 4 Norte 10 Sudeste 0 -- -- 68
2020-01-10 01:00:00 15.2 10 Sudeste 30 Norte 0 -- -- 66
2020-01-10 00:00:00 16 6 Norte 23 Norte 0 -- -- 54
2020-01-09 23:00:00 16.3 15 Norte 30 Norte 0 -- -- 55
2020-01-09 22:00:00 16.3 15 Norte 47 Norte 0 -- -- 55
2020-01-09 21:00:00 16.5 33 Norte 58 Norte 0 -- -- 56
2020-01-09 20:00:00 16.8 29 Norte 52 Norte 0 -- -- 59
2020-01-09 19:00:00 16.7 23 Norte 56 Norte 0 -- -- 58
2020-01-09 18:00:00 17.4 26 Noroeste 42 Noroeste 0 -- -- 58
2020-01-09 17:00:00 18.6 19 Noroeste 31 Noroeste 0 -- -- 50
2020-01-09 16:00:00 19.6 22 Norte 44 Norte 0 -- -- 45
2020-01-09 15:00:00 19.2 26 Norte 42 Norte 0 -- -- 47
2020-01-09 14:00:00 19.1 17 Norte 40 Norte 0 -- -- 49
2020-01-09 13:00:00 18.3 21 Norte 44 Norte 0 -- -- 52
2020-01-09 12:00:00 17.7 30 Norte 49 Norte 0 -- -- 52
2020-01-09 11:00:00 18 17 Norte 38 Norte 0 -- -- 51
2020-01-09 10:00:00 16.4 17 Norte 26 Norte 0 -- -- 56
2020-01-09 09:00:00 15 6 Este 19 Nordeste 0 -- -- 59
2020-01-09 08:00:00 14.9 10 Este 25 Nordeste 0 -- -- 61
2020-01-09 07:00:00 15.3 7 Nordeste 25 Norte 0 -- -- 56
2020-01-09 06:00:00 15.4 9 Norte 27 Norte 0 -- -- 56
2020-01-09 05:00:00 14.6 5 Nordeste 18 Norte 0 -- -- 56
2020-01-09 04:00:00 14.2 5 Nordeste 10 Nordeste 0 -- -- 60
2020-01-09 03:00:00 14.7 6 Norte 17 Norte 0 -- -- 59
2020-01-09 02:00:00 15.4 9 Nordeste 29 Norte 0 -- -- 60
2020-01-09 01:00:00 16.3 14 Norte 30 Norte 0 -- -- 54
2020-01-09 00:00:00 16.4 18 Norte 44 Norte 0 -- -- 58
2020-01-08 23:00:00 16.6 22 Norte 48 Norte 0 -- -- 54
2020-01-08 22:00:00 16.1 22 Norte 45 Norte 0 -- -- 54
2020-01-08 21:00:00 16.4 18 Norte 40 Norte 0 -- -- 53
2020-01-08 20:00:00 16.7 24 Norte 39 Norte 0 -- -- 52
2020-01-08 19:00:00 17.3 14 Norte 31 Norte 0 -- -- 51
2020-01-08 18:00:00 18.6 5 Noroeste 23 Sur 0 -- -- 45
2020-01-08 17:00:00 20.8 17 Sur 27 Sur 0 -- -- 53
2020-01-08 16:00:00 21.9 18 Sur 27 Sur 0 -- -- 48
2020-01-08 15:00:00 21.3 19 Sur 30 Sur 0 -- -- 48
2020-01-08 14:00:00 20.2 20 Sur 26 Sur 0 -- -- 51
2020-01-08 13:00:00 19.3 16 Sur 25 Sur 0 -- -- 48
2020-01-08 12:00:00 19.5 13 Sur 19 Sur 0 -- -- 48
2020-01-08 11:00:00 18.4 12 Sur 18 Sur 0 -- -- 48
2020-01-08 10:00:00 15 5 Sur 13 Nordeste 0 -- -- 53
2020-01-08 09:00:00 15.3 7 Norte 16 Nordeste 0 -- -- 52
2020-01-08 08:00:00 13.7 4 Nordeste 9 Noroeste 0 -- -- 57
2020-01-08 07:00:00 14 4 Norte 12 Nordeste 0 -- -- 60
2020-01-08 06:00:00 14.3 6 Nordeste 16 Nordeste 0 -- -- 60
2020-01-08 05:00:00 14.7 9 Nordeste 17 Nordeste 0 -- -- 58
2020-01-08 04:00:00 14.4 10 Nordeste 18 Nordeste 0 -- -- 57
2020-01-08 03:00:00 14.9 12 Norte 20 Norte 0 -- -- 58
2020-01-08 02:00:00 14.6 8 Nordeste 17 Nordeste 0 -- -- 56
2020-01-08 01:00:00 14.5 6 Norte 10 Norte 0 -- -- 52
2020-01-08 00:00:00 15.4 0 Calma 21 Norte 0 -- -- 50
2020-01-07 23:00:00 15.5 9 Norte 15 Norte 0 -- -- 54
2020-01-07 22:00:00 15.2 7 Norte 15 Nordeste 0 -- -- 63
2020-01-07 21:00:00 15.7 9 Norte 18 Noroeste 0 -- -- 53
2020-01-07 20:00:00 16.5 12 Nordeste 18 Nordeste 0 -- -- 41
2020-01-07 19:00:00 16.7 5 Sur 16 Sur 0 -- -- 51
2020-01-07 18:00:00 18.4 13 Sur 24 Sur 0 -- -- 46
2020-01-07 17:00:00 20.8 18 Sur 29 Sur 0 -- -- 41
2020-01-07 16:00:00 21.7 19 Sur 32 Sur 0 -- -- 38
2020-01-07 15:00:00 22.1 18 Sur 32 Sur 0 -- -- 36
2020-01-07 14:00:00 21.4 21 Sur 31 Sur 0 -- -- 40
2020-01-07 13:00:00 21 16 Sur 29 Sur 0 -- -- 44
2020-01-07 12:00:00 19.7 14 Sur 25 Sudoeste 0 -- -- 50
2020-01-07 11:00:00 18.4 7 Sur 12 Sur 0 -- -- 55
2020-01-07 10:00:00 15.2 5 Este 9 Norte 0 -- -- 64
2020-01-07 09:00:00 14.5 2 Nordeste 7 Norte 0 -- -- 65
2020-01-07 08:00:00 14.6 0 Calma 13 Norte 0 -- -- 62
2020-01-07 07:00:00 15.2 7 Nordeste 12 Este 0 -- -- 60
2020-01-07 06:00:00 15.8 10 Este 22 Norte 0 -- -- 58
2020-01-07 05:00:00 15.5 9 Nordeste 17 Norte 0 -- -- 57
2020-01-07 04:00:00 16.1 6 Nordeste 18 Norte 0 -- -- 58
2020-01-07 03:00:00 16.3 8 Norte 27 Noroeste 0 -- -- 55
2020-01-07 02:00:00 16 14 Norte 36 Norte 0 -- -- 61
2020-01-07 01:00:00 16.1 18 Norte 35 Norte 0 -- -- 61
2020-01-07 00:00:00 16.4 19 Norte 50 Norte 0 -- -- 56
2020-01-06 23:00:00 16.5 23 Norte 48 Norte 0 -- -- 54
2020-01-06 22:00:00 16.2 21 Norte 40 Norte 0 -- -- 61
2020-01-06 21:00:00 16.2 22 Norte 42 Nordeste 0 -- -- 63
2020-01-06 20:00:00 16.1 24 Norte 40 Norte 0 -- -- 63
2020-01-06 19:00:00 16.3 21 Norte 37 Nordeste 0 -- -- 61
2020-01-06 18:00:00 16.9 14 Norte 41 Norte 0 -- -- 60
2020-01-06 17:00:00 18 25 Norte 40 Norte 0 -- -- 55
2020-01-06 16:00:00 18.4 26 Norte 50 Norte 0 -- -- 55
2020-01-06 15:00:00 18.8 34 Norte 50 Norte 0 -- -- 53
2020-01-06 14:00:00 18.8 24 Norte 40 Noroeste 0 -- -- 53
2020-01-06 13:00:00 19 19 Norte 41 Noroeste 0 -- -- 48
2020-01-06 12:00:00 18.5 17 Norte 33 Norte 0 -- -- 46
2020-01-06 11:00:00 17.7 17 Norte 36 Noroeste 0 -- -- 52
2020-01-06 10:00:00 17 21 Norte 38 Norte 0 -- -- 57
2020-01-06 09:00:00 16.2 14 Norte 39 Noroeste 0 -- -- 56